sensor_id;sensor_type;location;lat;lon;timestamp;pressure;altitude;pressure_sealevel;temperature;humidity
78123;BME280;67376;44.802;10.332;2024-01-30T00:00:31;103135.34;;;19.19;43.00
78123;BME280;67376;44.802;10.332;2024-01-30T00:02:56;103128.41;;;19.16;42.20
78123;BME280;67376;44.802;10.332;2024-01-30T00:05:21;103133.16;;;19.14;42.87
78123;BME280;67376;44.802;10.332;2024-01-30T00:07:47;103134.84;;;19.15;43.31
78123;BME280;67376;44.802;10.332;2024-01-30T00:10:12;103124.69;;;19.17;43.27
78123;BME280;67376;44.802;10.332;2024-01-30T00:12:38;103127.91;;;19.12;42.49
78123;BME280;67376;44.802;10.332;2024-01-30T00:15:04;103128.91;;;19.11;42.59
78123;BME280;67376;44.802;10.332;2024-01-30T00:17:30;103129.09;;;19.10;42.56
78123;BME280;67376;44.802;10.332;2024-01-30T00:19:55;103133.16;;;19.14;42.79
78123;BME280;67376;44.802;10.332;2024-01-30T00:22:21;103133.50;;;19.11;42.46
78123;BME280;67376;44.802;10.332;2024-01-30T00:24:46;103133.66;;;19.09;42.49
78123;BME280;67376;44.802;10.332;2024-01-30T00:27:11;103130.47;;;19.06;43.04
78123;BME280;67376;44.802;10.332;2024-01-30T00:29:37;103129.09;;;19.10;43.22
78123;BME280;67376;44.802;10.332;2024-01-30T00:32:02;103133.19;;;19.06;43.23
78123;BME280;67376;44.802;10.332;2024-01-30T00:34:27;103140.25;;;19.07;43.08
78123;BME280;67376;44.802;10.332;2024-01-30T00:36:53;103134.00;;;19.06;42.88
78123;BME280;67376;44.802;10.332;2024-01-30T00:39:18;103145.69;;;19.07;42.51
78123;BME280;67376;44.802;10.332;2024-01-30T00:41:44;103147.91;;;19.03;43.01
78123;BME280;67376;44.802;10.332;2024-01-30T00:44:10;103142.50;;;19.03;43.32
78123;BME280;67376;44.802;10.332;2024-01-30T00:46:35;103149.09;;;19.01;42.52
78123;BME280;67376;44.802;10.332;2024-01-30T00:49:01;103145.38;;;19.02;42.91
78123;BME280;67376;44.802;10.332;2024-01-30T00:51:26;103155.69;;;18.98;43.31
78123;BME280;67376;44.802;10.332;2024-01-30T00:53:52;103150.78;;;19.02;42.41
78123;BME280;67376;44.802;10.332;2024-01-30T00:56:18;103140.13;;;19.00;43.32
78123;BME280;67376;44.802;10.332;2024-01-30T00:58:44;103137.75;;;18.97;43.27
78123;BME280;67376;44.802;10.332;2024-01-30T01:01:09;103148.56;;;18.97;42.78
78123;BME280;67376;44.802;10.332;2024-01-30T01:03:34;103143.31;;;18.96;43.21
78123;BME280;67376;44.802;10.332;2024-01-30T01:06:00;103149.41;;;18.98;42.62
78123;BME280;67376;44.802;10.332;2024-01-30T01:08:25;103162.28;;;18.96;42.28
78123;BME280;67376;44.802;10.332;2024-01-30T01:10:50;103157.53;;;18.98;42.66
78123;BME280;67376;44.802;10.332;2024-01-30T01:13:16;103156.84;;;18.96;42.33
78123;BME280;67376;44.802;10.332;2024-01-30T01:15:41;103161.75;;;18.92;42.18
78123;BME280;67376;44.802;10.332;2024-01-30T01:18:06;103162.44;;;18.94;42.19
78123;BME280;67376;44.802;10.332;2024-01-30T01:20:32;103171.56;;;18.93;42.62
78123;BME280;67376;44.802;10.332;2024-01-30T01:22:57;103167.19;;;18.92;42.30
78123;BME280;67376;44.802;10.332;2024-01-30T01:25:22;103164.31;;;18.94;41.70
78123;BME280;67376;44.802;10.332;2024-01-30T01:27:48;103163.44;;;18.93;42.01
78123;BME280;67376;44.802;10.332;2024-01-30T01:30:17;103166.16;;;18.93;41.94
78123;BME280;67376;44.802;10.332;2024-01-30T01:32:49;103159.22;;;18.91;42.19
78123;BME280;67376;44.802;10.332;2024-01-30T01:35:21;103172.06;;;18.89;42.70
78123;BME280;67376;44.802;10.332;2024-01-30T01:37:48;103156.84;;;18.88;42.52
78123;BME280;67376;44.802;10.332;2024-01-30T01:40:20;103158.72;;;18.87;41.66
78123;BME280;67376;44.802;10.332;2024-01-30T01:42:45;103158.88;;;18.86;42.76
78123;BME280;67376;44.802;10.332;2024-01-30T01:45:11;103166.16;;;18.85;41.83
78123;BME280;67376;44.802;10.332;2024-01-30T01:47:36;103160.91;;;18.84;41.67
78123;BME280;67376;44.802;10.332;2024-01-30T01:50:02;103161.59;;;18.86;42.38
78123;BME280;67376;44.802;10.332;2024-01-30T01:52:28;103164.44;;;18.84;41.84
78123;BME280;67376;44.802;10.332;2024-01-30T01:54:54;103157.34;;;18.83;41.98
78123;BME280;67376;44.802;10.332;2024-01-30T01:57:19;103162.06;;;18.81;41.66
78123;BME280;67376;44.802;10.332;2024-01-30T01:59:45;103157.84;;;18.78;41.70
78123;BME280;67376;44.802;10.332;2024-01-30T02:02:11;103158.69;;;18.79;42.01
78123;BME280;67376;44.802;10.332;2024-01-30T02:04:38;103156.16;;;18.77;41.78
78123;BME280;67376;44.802;10.332;2024-01-30T02:07:03;103155.31;;;18.77;42.07
78123;BME280;67376;44.802;10.332;2024-01-30T02:09:29;103151.75;;;18.76;42.46
78123;BME280;67376;44.802;10.332;2024-01-30T02:11:55;103147.34;;;18.75;42.26
78123;BME280;67376;44.802;10.332;2024-01-30T02:14:20;103146.50;;;18.75;42.62
78123;BME280;67376;44.802;10.332;2024-01-30T02:16:45;103149.38;;;18.73;42.07
78123;BME280;67376;44.802;10.332;2024-01-30T02:19:11;103145.66;;;18.74;41.49
78123;BME280;67376;44.802;10.332;2024-01-30T02:21:36;103145.81;;;18.73;41.57
78123;BME280;67376;44.802;10.332;2024-01-30T02:24:02;103142.94;;;18.74;42.05
78123;BME280;67376;44.802;10.332;2024-01-30T02:26:28;103143.97;;;18.73;42.25
78123;BME280;67376;44.802;10.332;2024-01-30T02:28:54;103144.28;;;18.70;41.86
78123;BME280;67376;44.802;10.332;2024-01-30T02:31:19;103144.63;;;18.67;42.55
78123;BME280;67376;44.802;10.332;2024-01-30T02:33:44;103144.28;;;18.70;42.42
78123;BME280;67376;44.802;10.332;2024-01-30T02:36:10;103132.47;;;18.71;41.90
78123;BME280;67376;44.802;10.332;2024-01-30T02:38:35;103139.03;;;18.69;41.54
78123;BME280;67376;44.802;10.332;2024-01-30T02:41:00;103144.63;;;18.67;42.32
78123;BME280;67376;44.802;10.332;2024-01-30T02:43:26;103137.50;;;18.66;42.06
78123;BME280;67376;44.802;10.332;2024-01-30T02:45:51;103133.13;;;18.65;42.47
78123;BME280;67376;44.802;10.332;2024-01-30T02:48:16;103133.97;;;18.66;42.26
78123;BME280;67376;44.802;10.332;2024-01-30T02:50:42;103131.25;;;18.66;42.35
78123;BME280;67376;44.802;10.332;2024-01-30T02:53:07;103119.75;;;18.64;41.57
78123;BME280;67376;44.802;10.332;2024-01-30T02:55:33;103128.19;;;18.61;41.36
78123;BME280;67376;44.802;10.332;2024-01-30T02:57:58;103127.50;;;18.59;42.19
78123;BME280;67376;44.802;10.332;2024-01-30T03:00:24;103122.78;;;18.61;42.01
78123;BME280;67376;44.802;10.332;2024-01-30T03:02:49;103124.66;;;18.60;42.23
78123;BME280;67376;44.802;10.332;2024-01-30T03:05:15;103129.50;;;18.57;42.59
78123;BME280;67376;44.802;10.332;2024-01-30T03:07:40;103137.78;;;18.55;41.43
78123;BME280;67376;44.802;10.332;2024-01-30T03:10:05;103131.03;;;18.59;41.38
78123;BME280;67376;44.802;10.332;2024-01-30T03:12:31;103130.19;;;18.59;42.33
78123;BME280;67376;44.802;10.332;2024-01-30T03:14:57;103135.78;;;18.57;42.05
78123;BME280;67376;44.802;10.332;2024-01-30T03:17:22;103137.63;;;18.57;41.28
78123;BME280;67376;44.802;10.332;2024-01-30T03:19:49;103130.34;;;18.57;42.56
78123;BME280;67376;44.802;10.332;2024-01-30T03:22:14;103130.53;;;18.56;41.52
78123;BME280;67376;44.802;10.332;2024-01-30T03:24:40;103129.00;;;18.53;41.45
78123;BME280;67376;44.802;10.332;2024-01-30T03:27:05;103138.81;;;18.54;41.72
78123;BME280;67376;44.802;10.332;2024-01-30T03:29:30;103137.78;;;18.55;41.65
78123;BME280;67376;44.802;10.332;2024-01-30T03:31:56;103134.41;;;18.53;41.91
78123;BME280;67376;44.802;10.332;2024-01-30T03:34:21;103131.03;;;18.51;42.28
78123;BME280;67376;44.802;10.332;2024-01-30T03:36:46;103126.78;;;18.48;42.72
78123;BME280;67376;44.802;10.332;2024-01-30T03:39:12;103128.31;;;18.51;41.69
78123;BME280;67376;44.802;10.332;2024-01-30T03:41:37;103128.47;;;18.49;41.98
78123;BME280;67376;44.802;10.332;2024-01-30T03:44:03;103114.09;;;18.49;42.52
78123;BME280;67376;44.802;10.332;2024-01-30T03:46:28;103120.38;;;18.49;42.19
78123;BME280;67376;44.802;10.332;2024-01-30T03:48:54;103130.00;;;18.44;42.58
78123;BME280;67376;44.802;10.332;2024-01-30T03:51:19;103115.47;;;18.45;41.72
78123;BME280;67376;44.802;10.332;2024-01-30T03:53:45;103131.88;;;18.43;41.99
78123;BME280;67376;44.802;10.332;2024-01-30T03:56:11;103125.63;;;18.43;42.55
78123;BME280;67376;44.802;10.332;2024-01-30T03:58:38;103126.63;;;18.42;42.67
78123;BME280;67376;44.802;10.332;2024-01-30T04:01:04;103127.63;;;18.41;41.86
78123;BME280;67376;44.802;10.332;2024-01-30T04:03:29;103127.13;;;18.37;42.70
78123;BME280;67376;44.802;10.332;2024-01-30T04:05:54;103122.91;;;18.43;41.72
78123;BME280;67376;44.802;10.332;2024-01-30T04:08:20;103119.84;;;18.38;41.56
78123;BME280;67376;44.802;10.332;2024-01-30T04:10:46;103129.66;;;18.39;42.04
78123;BME280;67376;44.802;10.332;2024-01-30T04:13:12;103124.25;;;18.39;42.45
78123;BME280;67376;44.802;10.332;2024-01-30T04:15:37;103119.00;;;18.37;41.71
78123;BME280;67376;44.802;10.332;2024-01-30T04:18:03;103130.84;;;18.36;42.13
78123;BME280;67376;44.802;10.332;2024-01-30T04:20:29;103126.28;;;18.37;42.51
78123;BME280;67376;44.802;10.332;2024-01-30T04:22:54;103126.28;;;18.37;41.86
78123;BME280;67376;44.802;10.332;2024-01-30T04:25:20;103130.16;;;18.34;42.43
78123;BME280;67376;44.802;10.332;2024-01-30T04:27:45;103124.56;;;18.36;42.48
78123;BME280;67376;44.802;10.332;2024-01-30T04:30:11;103125.75;;;18.33;42.51
78123;BME280;67376;44.802;10.332;2024-01-30T04:32:36;103126.06;;;18.30;42.21
78123;BME280;67376;44.802;10.332;2024-01-30T04:35:02;103126.59;;;18.34;41.86
78123;BME280;67376;44.802;10.332;2024-01-30T04:37:28;103120.19;;;18.35;41.68
78123;BME280;67376;44.802;10.332;2024-01-30T04:39:53;103119.81;;;18.30;41.89
78123;BME280;67376;44.802;10.332;2024-01-30T04:42:19;103111.72;;;18.30;42.09
78123;BME280;67376;44.802;10.332;2024-01-30T04:44:44;103124.53;;;18.28;42.50
78123;BME280;67376;44.802;10.332;2024-01-30T04:47:10;103119.28;;;18.26;42.44
78123;BME280;67376;44.802;10.332;2024-01-30T04:49:38;103120.16;;;18.27;42.71
78123;BME280;67376;44.802;10.332;2024-01-30T04:52:04;103116.91;;;18.23;41.97
78123;BME280;67376;44.802;10.332;2024-01-30T04:54:29;103118.63;;;18.24;41.92
78123;BME280;67376;44.802;10.332;2024-01-30T04:56:55;103121.66;;;18.21;41.99
78123;BME280;67376;44.802;10.332;2024-01-30T04:59:20;103118.09;;;18.21;42.76
78123;BME280;67376;44.802;10.332;2024-01-30T05:01:46;103116.25;;;18.21;41.80
78123;BME280;67376;44.802;10.332;2024-01-30T05:04:11;103118.78;;;18.23;42.03
78123;BME280;67376;44.802;10.332;2024-01-30T05:06:36;103119.13;;;18.28;41.68
78123;BME280;67376;44.802;10.332;2024-01-30T05:09:02;103119.28;;;18.26;42.58
78123;BME280;67376;44.802;10.332;2024-01-30T05:11:29;103122.34;;;18.23;41.92
78123;BME280;67376;44.802;10.332;2024-01-30T05:13:54;103119.78;;;18.22;42.01
78123;BME280;67376;44.802;10.332;2024-01-30T05:16:20;103126.53;;;18.18;42.64
78123;BME280;67376;44.802;10.332;2024-01-30T05:18:45;103124.50;;;18.20;42.61
78123;BME280;67376;44.802;10.332;2024-01-30T05:21:10;103129.22;;;18.18;42.35
78123;BME280;67376;44.802;10.332;2024-01-30T05:23:36;103128.56;;;18.15;42.92
78123;BME280;67376;44.802;10.332;2024-01-30T05:26:01;103124.69;;;18.18;42.33
78123;BME280;67376;44.802;10.332;2024-01-30T05:28:29;103132.25;;;18.14;42.01
78123;BME280;67376;44.802;10.332;2024-01-30T05:30:55;103129.19;;;18.09;42.75
78123;BME280;67376;44.802;10.332;2024-01-30T05:33:20;103129.72;;;18.13;42.98
78123;BME280;67376;44.802;10.332;2024-01-30T05:35:46;103126.34;;;18.11;42.38
78123;BME280;67376;44.802;10.332;2024-01-30T05:38:11;103123.63;;;18.11;42.14
78123;BME280;67376;44.802;10.332;2024-01-30T05:40:37;103124.81;;;18.08;43.19
78123;BME280;67376;44.802;10.332;2024-01-30T05:43:03;103124.47;;;18.11;42.14
78123;BME280;67376;44.802;10.332;2024-01-30T05:45:28;103133.59;;;18.10;43.07
78123;BME280;67376;44.802;10.332;2024-01-30T05:47:54;103132.25;;;18.14;42.41
78123;BME280;67376;44.802;10.332;2024-01-30T05:50:19;103132.91;;;18.08;43.21
78123;BME280;67376;44.802;10.332;2024-01-30T05:52:45;103131.91;;;18.09;43.09
78123;BME280;67376;44.802;10.332;2024-01-30T05:55:11;103133.59;;;18.10;43.44
78123;BME280;67376;44.802;10.332;2024-01-30T05:57:37;103135.97;;;18.13;42.48
78123;BME280;67376;44.802;10.332;2024-01-30T06:00:04;103130.41;;;18.15;43.30
78123;BME280;67376;44.802;10.332;2024-01-30T06:02:30;103132.56;;;15.53;31.60
78123;BME280;67376;44.802;10.332;2024-01-30T06:04:55;103136.13;;;13.56;31.90
78123;BME280;67376;44.802;10.332;2024-01-30T06:07:21;103145.59;;;12.21;35.20
78123;BME280;67376;44.802;10.332;2024-01-30T06:09:47;103147.25;;;11.44;36.16
78123;BME280;67376;44.802;10.332;2024-01-30T06:12:12;103153.34;;;12.57;35.85
78123;BME280;67376;44.802;10.332;2024-01-30T06:14:38;103147.69;;;13.57;38.78
78123;BME280;67376;44.802;10.332;2024-01-30T06:17:03;103148.34;;;14.31;41.11
78123;BME280;67376;44.802;10.332;2024-01-30T06:19:30;103147.47;;;14.90;41.23
78123;BME280;67376;44.802;10.332;2024-01-30T06:21:55;103149.28;;;15.37;41.64
78123;BME280;67376;44.802;10.332;2024-01-30T06:24:20;103147.09;;;15.79;41.58
78123;BME280;67376;44.802;10.332;2024-01-30T06:26:46;103144.84;;;16.12;41.56
78123;BME280;67376;44.802;10.332;2024-01-30T06:29:11;103150.06;;;16.41;41.39
78123;BME280;67376;44.802;10.332;2024-01-30T06:31:40;103148.53;;;16.66;41.76
78123;BME280;67376;44.802;10.332;2024-01-30T06:34:07;103152.78;;;16.86;41.88
78123;BME280;67376;44.802;10.332;2024-01-30T06:36:32;103152.09;;;17.02;42.10
78123;BME280;67376;44.802;10.332;2024-01-30T06:38:57;103161.50;;;17.15;42.29
78123;BME280;67376;44.802;10.332;2024-01-30T06:41:23;103161.56;;;17.24;42.31
78123;BME280;67376;44.802;10.332;2024-01-30T06:43:49;103160.97;;;17.38;42.49
78123;BME280;67376;44.802;10.332;2024-01-30T06:46:14;103162.41;;;17.24;35.16
78123;BME280;67376;44.802;10.332;2024-01-30T06:48:40;103159.72;;;16.43;30.09
78123;BME280;67376;44.802;10.332;2024-01-30T06:51:06;103173.06;;;15.61;30.10
78123;BME280;67376;44.802;10.332;2024-01-30T06:53:31;103166.66;;;15.72;31.98
78123;BME280;67376;44.802;10.332;2024-01-30T06:55:57;103159.25;;;15.93;32.23
78123;BME280;67376;44.802;10.332;2024-01-30T06:58:22;103162.56;;;16.14;32.94
78123;BME280;67376;44.802;10.332;2024-01-30T07:00:48;103162.69;;;16.40;33.86
78123;BME280;67376;44.802;10.332;2024-01-30T07:03:13;103174.84;;;16.54;34.27
78123;BME280;67376;44.802;10.332;2024-01-30T07:05:38;103169.88;;;16.77;33.96
78123;BME280;67376;44.802;10.332;2024-01-30T07:08:04;103163.81;;;16.47;30.00
78123;BME280;67376;44.802;10.332;2024-01-30T07:10:29;103164.81;;;16.46;31.45
78123;BME280;67376;44.802;10.332;2024-01-30T07:12:56;103167.28;;;16.58;32.52
78123;BME280;67376;44.802;10.332;2024-01-30T07:15:22;103160.41;;;16.73;33.89
78123;BME280;67376;44.802;10.332;2024-01-30T07:17:47;103172.50;;;16.87;33.94
78123;BME280;67376;44.802;10.332;2024-01-30T07:20:12;103158.50;;;17.01;34.40
78123;BME280;67376;44.802;10.332;2024-01-30T07:22:38;103170.75;;;17.13;35.13
78123;BME280;67376;44.802;10.332;2024-01-30T07:25:04;103165.13;;;17.24;34.81
78123;BME280;67376;44.802;10.332;2024-01-30T07:27:29;103175.81;;;17.34;34.28
78123;BME280;67376;44.802;10.332;2024-01-30T07:29:54;103175.72;;;17.43;34.63
78123;BME280;67376;44.802;10.332;2024-01-30T07:32:20;103175.09;;;17.49;34.65
78123;BME280;67376;44.802;10.332;2024-01-30T07:34:45;103180.56;;;17.58;34.89
78123;BME280;67376;44.802;10.332;2024-01-30T07:37:11;103185.78;;;17.59;35.57
78123;BME280;67376;44.802;10.332;2024-01-30T07:39:40;103179.91;;;17.64;35.31
78123;BME280;67376;44.802;10.332;2024-01-30T07:42:06;103185.91;;;17.67;35.97
78123;BME280;67376;44.802;10.332;2024-01-30T07:44:31;103185.41;;;17.72;35.50
78123;BME280;67376;44.802;10.332;2024-01-30T07:46:56;103189.50;;;17.76;35.18
78123;BME280;67376;44.802;10.332;2024-01-30T07:49:22;103193.75;;;17.78;36.24
78123;BME280;67376;44.802;10.332;2024-01-30T07:51:47;103194.28;;;17.82;36.43
78123;BME280;67376;44.802;10.332;2024-01-30T07:54:16;103193.09;;;17.85;35.86
78123;BME280;67376;44.802;10.332;2024-01-30T07:56:41;103191.09;;;17.87;36.39
78123;BME280;67376;44.802;10.332;2024-01-30T07:59:10;103189.56;;;17.92;36.93
78123;BME280;67376;44.802;10.332;2024-01-30T08:01:35;103189.25;;;17.95;36.22
78123;BME280;67376;44.802;10.332;2024-01-30T08:04:01;103193.66;;;17.96;36.94
78123;BME280;67376;44.802;10.332;2024-01-30T08:06:26;103187.25;;;17.97;37.28
78123;BME280;67376;44.802;10.332;2024-01-30T08:08:51;103185.22;;;17.99;37.19
78123;BME280;67376;44.802;10.332;2024-01-30T08:11:20;103189.31;;;18.03;36.61
78123;BME280;67376;44.802;10.332;2024-01-30T08:13:45;103182.25;;;18.10;37.82
78123;BME280;67376;44.802;10.332;2024-01-30T08:16:11;103188.19;;;18.14;37.11
78123;BME280;67376;44.802;10.332;2024-01-30T08:18:36;103195.44;;;18.13;37.01
78123;BME280;67376;44.802;10.332;2024-01-30T08:21:01;103192.75;;;18.13;37.92
78123;BME280;67376;44.802;10.332;2024-01-30T08:23:27;103191.41;;;18.18;37.70
78123;BME280;67376;44.802;10.332;2024-01-30T08:25:52;103192.94;;;18.20;38.16
78123;BME280;67376;44.802;10.332;2024-01-30T08:28:17;103187.38;;;18.22;38.23
78123;BME280;67376;44.802;10.332;2024-01-30T08:30:43;103195.81;;;18.19;37.95
78123;BME280;67376;44.802;10.332;2024-01-30T08:33:08;103183.00;;;18.21;38.43
78123;BME280;67376;44.802;10.332;2024-01-30T08:35:34;103190.94;;;18.22;37.60
78123;BME280;67376;44.802;10.332;2024-01-30T08:37:59;103187.53;;;18.20;38.35
78123;BME280;67376;44.802;10.332;2024-01-30T08:40:25;103189.09;;;18.23;38.53
78123;BME280;67376;44.802;10.332;2024-01-30T08:42:50;103189.09;;;18.23;37.96
78123;BME280;67376;44.802;10.332;2024-01-30T08:45:16;103194.66;;;18.21;38.38
78123;BME280;67376;44.802;10.332;2024-01-30T08:47:42;103189.09;;;18.23;38.61
78123;BME280;67376;44.802;10.332;2024-01-30T08:50:07;103188.06;;;18.24;38.56
78123;BME280;67376;44.802;10.332;2024-01-30T08:52:33;103192.63;;;18.23;38.85
78123;BME280;67376;44.802;10.332;2024-01-30T08:54:59;103201.75;;;18.22;39.15
78123;BME280;67376;44.802;10.332;2024-01-30T08:57:25;103201.44;;;18.25;39.40
78123;BME280;67376;44.802;10.332;2024-01-30T08:59:53;103213.25;;;18.24;39.09
78123;BME280;67376;44.802;10.332;2024-01-30T09:02:19;103201.44;;;18.25;38.69
78123;BME280;67376;44.802;10.332;2024-01-30T09:04:44;103200.41;;;18.26;39.57
78123;BME280;67376;44.802;10.332;2024-01-30T09:07:10;103199.41;;;18.27;39.41
78123;BME280;67376;44.802;10.332;2024-01-30T09:09:37;103200.41;;;18.26;39.38
78123;BME280;67376;44.802;10.332;2024-01-30T09:12:02;103206.69;;;18.27;39.52
78123;BME280;67376;44.802;10.332;2024-01-30T09:14:32;103197.72;;;18.26;39.51
78123;BME280;67376;44.802;10.332;2024-01-30T09:16:57;103200.25;;;18.28;39.30
78123;BME280;67376;44.802;10.332;2024-01-30T09:19:23;103205.66;;;18.28;39.18
78123;BME280;67376;44.802;10.332;2024-01-30T09:21:48;103204.50;;;18.30;40.03
78123;BME280;67376;44.802;10.332;2024-01-30T09:24:13;103200.59;;;18.25;40.13
78123;BME280;67376;44.802;10.332;2024-01-30T09:26:39;103208.00;;;18.23;39.31
78123;BME280;67376;44.802;10.332;2024-01-30T09:29:04;103208.50;;;18.18;39.41
78123;BME280;67376;44.802;10.332;2024-01-30T09:31:29;103214.59;;;18.20;39.85
78123;BME280;67376;44.802;10.332;2024-01-30T09:33:55;103219.47;;;18.17;39.85
78123;BME280;67376;44.802;10.332;2024-01-30T09:36:20;103221.16;;;18.18;39.33
78123;BME280;67376;44.802;10.332;2024-01-30T09:38:46;103215.59;;;18.19;39.96
78123;BME280;67376;44.802;10.332;2024-01-30T09:41:12;103218.47;;;18.18;40.16
78123;BME280;67376;44.802;10.332;2024-01-30T09:43:38;103214.09;;;18.25;40.12
78123;BME280;67376;44.802;10.332;2024-01-30T09:46:05;103222.25;;;18.33;40.79
78123;BME280;67376;44.802;10.332;2024-01-30T09:48:32;103221.25;;;18.34;39.77
78123;BME280;67376;44.802;10.332;2024-01-30T09:50:58;103227.03;;;18.39;39.54
78123;BME280;67376;44.802;10.332;2024-01-30T09:53:25;103226.53;;;18.43;40.36
78123;BME280;67376;44.802;10.332;2024-01-30T09:55:50;103214.34;;;18.39;39.65
78123;BME280;67376;44.802;10.332;2024-01-30T09:58:16;103224.00;;;18.42;40.16
78123;BME280;67376;44.802;10.332;2024-01-30T10:00:42;103226.69;;;18.42;40.50
78123;BME280;67376;44.802;10.332;2024-01-30T10:03:08;103223.84;;;18.43;39.99
78123;BME280;67376;44.802;10.332;2024-01-30T10:05:35;103227.22;;;18.45;40.50
78123;BME280;67376;44.802;10.332;2024-01-30T10:08:06;103224.69;;;18.44;40.42
78123;BME280;67376;44.802;10.332;2024-01-30T10:10:33;103216.91;;;18.49;40.40
78123;BME280;67376;44.802;10.332;2024-01-30T10:12:59;103221.28;;;18.50;40.51
78123;BME280;67376;44.802;10.332;2024-01-30T10:15:25;103216.72;;;18.51;39.27
78123;BME280;67376;44.802;10.332;2024-01-30T10:17:50;103220.66;;;18.48;39.00
78123;BME280;67376;44.802;10.332;2024-01-30T10:20:16;103212.66;;;18.38;39.04
78123;BME280;67376;44.802;10.332;2024-01-30T10:22:43;103207.25;;;18.38;38.90
78123;BME280;67376;44.802;10.332;2024-01-30T10:25:09;103211.13;;;18.36;38.55
78123;BME280;67376;44.802;10.332;2024-01-30T10:27:35;103200.50;;;18.42;37.81
78123;BME280;67376;44.802;10.332;2024-01-30T10:30:00;103200.13;;;18.37;38.15
78123;BME280;67376;44.802;10.332;2024-01-30T10:32:25;103208.94;;;18.39;37.93
78123;BME280;67376;44.802;10.332;2024-01-30T10:34:51;103210.63;;;18.40;37.20
78123;BME280;67376;44.802;10.332;2024-01-30T10:37:17;103207.94;;;18.40;37.91
78123;BME280;67376;44.802;10.332;2024-01-30T10:39:45;103202.69;;;18.39;36.98
78123;BME280;67376;44.802;10.332;2024-01-30T10:42:15;103200.34;;;18.52;37.67
78123;BME280;67376;44.802;10.332;2024-01-30T10:47:28;103189.19;;;18.55;37.67
78123;BME280;67376;44.802;10.332;2024-01-30T10:49:54;103183.28;;;18.60;38.06
78123;BME280;67376;44.802;10.332;2024-01-30T10:52:20;103183.00;;;18.63;37.70
78123;BME280;67376;44.802;10.332;2024-01-30T10:54:46;103174.38;;;18.67;38.08
78123;BME280;67376;44.802;10.332;2024-01-30T10:57:12;103174.22;;;18.69;38.61
78123;BME280;67376;44.802;10.332;2024-01-30T10:59:40;103170.50;;;18.70;37.83
78123;BME280;67376;44.802;10.332;2024-01-30T11:02:06;103179.31;;;18.72;38.73
78123;BME280;67376;44.802;10.332;2024-01-30T11:04:39;103168.66;;;18.70;38.21
78123;BME280;67376;44.802;10.332;2024-01-30T11:07:19;103169.00;;;18.75;38.33
78123;BME280;67376;44.802;10.332;2024-01-30T11:09:59;103159.69;;;18.78;37.99
78123;BME280;67376;44.802;10.332;2024-01-30T11:12:31;103155.13;;;18.78;38.27
78123;BME280;67376;44.802;10.332;2024-01-30T11:15:16;103159.69;;;18.78;38.89
78123;BME280;67376;44.802;10.332;2024-01-30T11:18:00;103161.22;;;18.80;39.25
78123;BME280;67376;44.802;10.332;2024-01-30T11:20:29;103153.28;;;18.79;38.79
78123;BME280;67376;44.802;10.332;2024-01-30T11:22:58;103153.28;;;18.79;39.14
78123;BME280;67376;44.802;10.332;2024-01-30T11:25:25;103153.28;;;18.79;38.49
78123;BME280;67376;44.802;10.332;2024-01-30T11:27:55;103149.22;;;18.83;39.48
78123;BME280;67376;44.802;10.332;2024-01-30T11:30:30;103150.06;;;18.84;39.73
78123;BME280;67376;44.802;10.332;2024-01-30T11:35:37;103137.91;;;18.88;38.80
78123;BME280;67376;44.802;10.332;2024-01-30T11:38:05;103131.81;;;18.86;39.44
78123;BME280;67376;44.802;10.332;2024-01-30T11:40:31;103134.84;;;18.83;39.50
78123;BME280;67376;44.802;10.332;2024-01-30T11:42:59;103130.78;;;18.78;38.59
78123;BME280;67376;44.802;10.332;2024-01-30T11:45:25;103130.94;;;18.77;38.40
78123;BME280;67376;44.802;10.332;2024-01-30T11:47:51;103125.53;;;18.77;38.57
78123;BME280;67376;44.802;10.332;2024-01-30T11:50:16;103121.97;;;18.68;37.46
78123;BME280;67376;44.802;10.332;2024-01-30T11:52:42;103112.66;;;18.63;38.45
78123;BME280;67376;44.802;10.332;2024-01-30T11:55:09;103112.94;;;18.60;37.83
78123;BME280;67376;44.802;10.332;2024-01-30T11:57:34;103112.09;;;18.59;37.23
78123;BME280;67376;44.802;10.332;2024-01-30T12:00:04;103105.00;;;18.58;37.31
78123;BME280;67376;44.802;10.332;2024-01-30T12:02:36;103105.31;;;18.55;37.34
78123;BME280;67376;44.802;10.332;2024-01-30T12:05:05;103097.91;;;18.57;38.34
78123;BME280;67376;44.802;10.332;2024-01-30T12:07:31;103100.59;;;18.57;37.34
78123;BME280;67376;44.802;10.332;2024-01-30T12:09:57;103092.47;;;18.57;37.45
78123;BME280;67376;44.802;10.332;2024-01-30T12:12:24;103080.97;;;18.55;37.85
78123;BME280;67376;44.802;10.332;2024-01-30T12:14:50;103090.28;;;18.53;37.90
78123;BME280;67376;44.802;10.332;2024-01-30T12:17:29;103078.28;;;18.55;38.24
78123;BME280;67376;44.802;10.332;2024-01-30T12:25:13;103066.66;;;18.71;37.86
78123;BME280;67376;44.802;10.332;2024-01-30T12:27:41;103066.16;;;18.75;38.07
78123;BME280;67376;44.802;10.332;2024-01-30T12:30:14;103057.03;;;18.76;37.85
78123;BME280;67376;44.802;10.332;2024-01-30T12:32:44;103055.84;;;18.79;38.12
78123;BME280;67376;44.802;10.332;2024-01-30T12:35:14;103051.78;;;18.83;37.93
78123;BME280;67376;44.802;10.332;2024-01-30T12:37:40;103044.53;;;18.84;38.71
78123;BME280;67376;44.802;10.332;2024-01-30T12:40:07;103036.22;;;18.85;38.59
78123;BME280;67376;44.802;10.332;2024-01-30T12:42:33;103039.28;;;18.90;39.12
78123;BME280;67376;44.802;10.332;2024-01-30T12:44:58;103030.31;;;18.90;38.07